sensor_id;sensor_type;location;lat;lon;timestamp;P1;durP1;ratioP1;P2;durP2;ratioP2
47860;SDS011;33620;52.340;5.984;2023-02-15T00:01:25;50.30;;;27.70;;
47860;SDS011;33620;52.340;5.984;2023-02-15T00:03:50;56.25;;;28.58;;
47860;SDS011;33620;52.340;5.984;2023-02-15T00:06:16;50.40;;;28.40;;
47860;SDS011;33620;52.340;5.984;2023-02-15T00:08:42;52.42;;;28.77;;
47860;SDS011;33620;52.340;5.984;2023-02-15T00:11:08;51.72;;;28.73;;
47860;SDS011;33620;52.340;5.984;2023-02-15T00:13:34;52.03;;;27.40;;
47860;SDS011;33620;52.340;5.984;2023-02-15T00:16:05;49.15;;;27.95;;
47860;SDS011;33620;52.340;5.984;2023-02-15T00:18:32;53.78;;;28.30;;
47860;SDS011;33620;52.340;5.984;2023-02-15T00:20:58;54.72;;;29.27;;
47860;SDS011;33620;52.340;5.984;2023-02-15T00:23:27;54.20;;;28.25;;
47860;SDS011;33620;52.340;5.984;2023-02-15T00:26:02;51.55;;;28.30;;
47860;SDS011;33620;52.340;5.984;2023-02-15T00:28:29;50.53;;;28.00;;
47860;SDS011;33620;52.340;5.984;2023-02-15T00:30:56;50.15;;;27.23;;
47860;SDS011;33620;52.340;5.984;2023-02-15T00:33:29;48.75;;;26.33;;
47860;SDS011;33620;52.340;5.984;2023-02-15T00:35:57;50.58;;;27.02;;
47860;SDS011;33620;52.340;5.984;2023-02-15T00:38:24;48.75;;;25.88;;
47860;SDS011;33620;52.340;5.984;2023-02-15T00:40:53;45.25;;;26.25;;
47860;SDS011;33620;52.340;5.984;2023-02-15T00:43:19;50.80;;;26.23;;
47860;SDS011;33620;52.340;5.984;2023-02-15T00:45:45;50.05;;;28.02;;
47860;SDS011;33620;52.340;5.984;2023-02-15T00:48:10;48.08;;;26.38;;
47860;SDS011;33620;52.340;5.984;2023-02-15T00:50:37;49.72;;;27.63;;
47860;SDS011;33620;52.340;5.984;2023-02-15T00:53:02;67.00;;;31.45;;
47860;SDS011;33620;52.340;5.984;2023-02-15T00:55:28;63.65;;;32.05;;
47860;SDS011;33620;52.340;5.984;2023-02-15T00:57:53;66.80;;;33.33;;
47860;SDS011;33620;52.340;5.984;2023-02-15T01:00:18;77.88;;;35.58;;
47860;SDS011;33620;52.340;5.984;2023-02-15T01:02:44;63.40;;;32.03;;
47860;SDS011;33620;52.340;5.984;2023-02-15T01:05:09;72.15;;;34.10;;
47860;SDS011;33620;52.340;5.984;2023-02-15T01:07:35;67.47;;;35.75;;
47860;SDS011;33620;52.340;5.984;2023-02-15T01:10:00;60.58;;;31.83;;
47860;SDS011;33620;52.340;5.984;2023-02-15T01:12:25;61.55;;;31.60;;
47860;SDS011;33620;52.340;5.984;2023-02-15T01:14:51;63.72;;;32.28;;
47860;SDS011;33620;52.340;5.984;2023-02-15T01:17:16;66.22;;;33.47;;
47860;SDS011;33620;52.340;5.984;2023-02-15T01:19:41;65.18;;;32.35;;
47860;SDS011;33620;52.340;5.984;2023-02-15T01:22:07;66.05;;;32.88;;
47860;SDS011;33620;52.340;5.984;2023-02-15T01:24:32;71.85;;;35.10;;
47860;SDS011;33620;52.340;5.984;2023-02-15T01:26:58;64.90;;;33.13;;
47860;SDS011;33620;52.340;5.984;2023-02-15T01:29:26;70.30;;;32.58;;
47860;SDS011;33620;52.340;5.984;2023-02-15T01:31:52;63.10;;;30.38;;
47860;SDS011;33620;52.340;5.984;2023-02-15T01:34:17;69.47;;;32.03;;
47860;SDS011;33620;52.340;5.984;2023-02-15T01:36:42;61.05;;;31.58;;
47860;SDS011;33620;52.340;5.984;2023-02-15T01:39:08;60.78;;;30.85;;
47860;SDS011;33620;52.340;5.984;2023-02-15T01:41:35;58.33;;;31.73;;
47860;SDS011;33620;52.340;5.984;2023-02-15T01:44:01;70.20;;;31.83;;
47860;SDS011;33620;52.340;5.984;2023-02-15T01:49:01;54.40;;;29.38;;
47860;SDS011;33620;52.340;5.984;2023-02-15T01:51:31;55.85;;;28.65;;
47860;SDS011;33620;52.340;5.984;2023-02-15T01:54:01;59.53;;;30.08;;
47860;SDS011;33620;52.340;5.984;2023-02-15T01:56:36;62.35;;;31.23;;
47860;SDS011;33620;52.340;5.984;2023-02-15T01:59:05;60.42;;;31.20;;
47860;SDS011;33620;52.340;5.984;2023-02-15T02:01:34;72.53;;;33.58;;
47860;SDS011;33620;52.340;5.984;2023-02-15T02:06:32;111.07;;;37.97;;
47860;SDS011;33620;52.340;5.984;2023-02-15T02:08:58;137.35;;;39.10;;
47860;SDS011;33620;52.340;5.984;2023-02-15T02:11:25;109.80;;;36.45;;
47860;SDS011;33620;52.340;5.984;2023-02-15T02:13:51;101.00;;;37.95;;
47860;SDS011;33620;52.340;5.984;2023-02-15T02:21:23;95.32;;;37.13;;
47860;SDS011;33620;52.340;5.984;2023-02-15T02:24:06;78.00;;;34.55;;
47860;SDS011;33620;52.340;5.984;2023-02-15T02:34:43;96.15;;;35.72;;
47860;SDS011;33620;52.340;5.984;2023-02-15T02:42:29;128.15;;;39.13;;
47860;SDS011;33620;52.340;5.984;2023-02-15T02:47:50;109.38;;;37.92;;
47860;SDS011;33620;52.340;5.984;2023-02-15T02:50:22;117.78;;;36.53;;
47860;SDS011;33620;52.340;5.984;2023-02-15T02:52:51;128.95;;;38.45;;
47860;SDS011;33620;52.340;5.984;2023-02-15T02:55:31;166.75;;;40.90;;
47860;SDS011;33620;52.340;5.984;2023-02-15T03:00:53;205.65;;;41.30;;
47860;SDS011;33620;52.340;5.984;2023-02-15T03:03:32;195.32;;;40.55;;
47860;SDS011;33620;52.340;5.984;2023-02-15T03:06:03;231.40;;;44.20;;
47860;SDS011;33620;52.340;5.984;2023-02-15T03:08:40;231.38;;;46.60;;
47860;SDS011;33620;52.340;5.984;2023-02-15T03:11:08;223.98;;;43.33;;
47860;SDS011;33620;52.340;5.984;2023-02-15T03:13:33;254.00;;;45.75;;
47860;SDS011;33620;52.340;5.984;2023-02-15T03:16:00;192.98;;;42.78;;
47860;SDS011;33620;52.340;5.984;2023-02-15T03:18:47;229.07;;;43.20;;
47860;SDS011;33620;52.340;5.984;2023-02-15T03:21:22;203.98;;;41.95;;
47860;SDS011;33620;52.340;5.984;2023-02-15T03:23:53;139.50;;;37.65;;
47860;SDS011;33620;52.340;5.984;2023-02-15T03:26:21;177.73;;;40.85;;
47860;SDS011;33620;52.340;5.984;2023-02-15T03:28:49;147.60;;;39.25;;
47860;SDS011;33620;52.340;5.984;2023-02-15T03:31:17;179.90;;;43.65;;
47860;SDS011;33620;52.340;5.984;2023-02-15T03:33:51;82.50;;;34.40;;
47860;SDS011;33620;52.340;5.984;2023-02-15T03:36:21;91.73;;;34.50;;
47860;SDS011;33620;52.340;5.984;2023-02-15T03:38:53;66.20;;;31.63;;
47860;SDS011;33620;52.340;5.984;2023-02-15T03:41:32;63.42;;;32.90;;
47860;SDS011;33620;52.340;5.984;2023-02-15T03:44:06;60.53;;;32.28;;
47860;SDS011;33620;52.340;5.984;2023-02-15T03:46:46;63.30;;;32.65;;
47860;SDS011;33620;52.340;5.984;2023-02-15T03:49:39;55.47;;;30.80;;
47860;SDS011;33620;52.340;5.984;2023-02-15T03:52:10;56.03;;;30.95;;
47860;SDS011;33620;52.340;5.984;2023-02-15T03:54:37;54.83;;;30.40;;
47860;SDS011;33620;52.340;5.984;2023-02-15T03:57:08;49.40;;;29.38;;
47860;SDS011;33620;52.340;5.984;2023-02-15T03:59:54;51.65;;;29.95;;
47860;SDS011;33620;52.340;5.984;2023-02-15T04:02:40;52.10;;;29.73;;
47860;SDS011;33620;52.340;5.984;2023-02-15T04:05:28;51.88;;;29.13;;
47860;SDS011;33620;52.340;5.984;2023-02-15T04:07:54;68.85;;;31.95;;
47860;SDS011;33620;52.340;5.984;2023-02-15T04:10:19;56.92;;;30.60;;
47860;SDS011;33620;52.340;5.984;2023-02-15T04:13:03;61.03;;;32.03;;
47860;SDS011;33620;52.340;5.984;2023-02-15T04:15:28;62.38;;;32.33;;
47860;SDS011;33620;52.340;5.984;2023-02-15T04:18:12;61.38;;;30.75;;
47860;SDS011;33620;52.340;5.984;2023-02-15T04:20:38;81.93;;;32.83;;
47860;SDS011;33620;52.340;5.984;2023-02-15T04:23:21;67.97;;;31.02;;
47860;SDS011;33620;52.340;5.984;2023-02-15T04:26:05;78.28;;;32.33;;
47860;SDS011;33620;52.340;5.984;2023-02-15T04:28:31;69.50;;;30.77;;
47860;SDS011;33620;52.340;5.984;2023-02-15T04:30:56;57.67;;;27.80;;
47860;SDS011;33620;52.340;5.984;2023-02-15T04:33:22;63.85;;;28.88;;
47860;SDS011;33620;52.340;5.984;2023-02-15T04:35:47;52.20;;;30.23;;
47860;SDS011;33620;52.340;5.984;2023-02-15T04:38:13;49.65;;;27.70;;
47860;SDS011;33620;52.340;5.984;2023-02-15T04:40:38;69.00;;;30.33;;
47860;SDS011;33620;52.340;5.984;2023-02-15T04:43:03;55.25;;;27.70;;
47860;SDS011;33620;52.340;5.984;2023-02-15T04:45:29;66.20;;;30.95;;
47860;SDS011;33620;52.340;5.984;2023-02-15T04:47:54;78.07;;;32.38;;
47860;SDS011;33620;52.340;5.984;2023-02-15T04:50:19;89.28;;;32.80;;
47860;SDS011;33620;52.340;5.984;2023-02-15T04:52:45;80.90;;;31.58;;
47860;SDS011;33620;52.340;5.984;2023-02-15T04:55:10;90.63;;;33.40;;
47860;SDS011;33620;52.340;5.984;2023-02-15T04:57:36;71.50;;;29.75;;
47860;SDS011;33620;52.340;5.984;2023-02-15T05:00:01;59.95;;;27.02;;
47860;SDS011;33620;52.340;5.984;2023-02-15T05:02:29;94.35;;;30.92;;
47860;SDS011;33620;52.340;5.984;2023-02-15T05:04:55;88.43;;;30.27;;
47860;SDS011;33620;52.340;5.984;2023-02-15T05:07:20;72.07;;;28.75;;
47860;SDS011;33620;52.340;5.984;2023-02-15T05:09:45;97.72;;;31.38;;
47860;SDS011;33620;52.340;5.984;2023-02-15T05:12:11;81.60;;;30.67;;
47860;SDS011;33620;52.340;5.984;2023-02-15T05:14:36;59.95;;;28.90;;
47860;SDS011;33620;52.340;5.984;2023-02-15T05:17:02;62.25;;;29.98;;
47860;SDS011;33620;52.340;5.984;2023-02-15T05:19:28;56.55;;;30.55;;
47860;SDS011;33620;52.340;5.984;2023-02-15T05:21:53;52.17;;;27.90;;
47860;SDS011;33620;52.340;5.984;2023-02-15T05:24:19;40.92;;;24.02;;
47860;SDS011;33620;52.340;5.984;2023-02-15T05:27:03;47.72;;;26.50;;
47860;SDS011;33620;52.340;5.984;2023-02-15T05:29:47;42.58;;;24.77;;
47860;SDS011;33620;52.340;5.984;2023-02-15T05:32:13;42.58;;;23.75;;
47860;SDS011;33620;52.340;5.984;2023-02-15T05:34:39;41.15;;;24.25;;
47860;SDS011;33620;52.340;5.984;2023-02-15T05:37:04;45.25;;;25.85;;
47860;SDS011;33620;52.340;5.984;2023-02-15T05:39:30;43.88;;;25.92;;
47860;SDS011;33620;52.340;5.984;2023-02-15T05:41:58;48.63;;;26.90;;
47860;SDS011;33620;52.340;5.984;2023-02-15T05:44:26;48.03;;;25.80;;
47860;SDS011;33620;52.340;5.984;2023-02-15T05:46:51;46.08;;;26.13;;
47860;SDS011;33620;52.340;5.984;2023-02-15T05:49:17;44.42;;;26.35;;
47860;SDS011;33620;52.340;5.984;2023-02-15T05:51:42;42.85;;;24.77;;
47860;SDS011;33620;52.340;5.984;2023-02-15T05:54:07;43.83;;;25.95;;
47860;SDS011;33620;52.340;5.984;2023-02-15T05:56:33;45.30;;;24.48;;
47860;SDS011;33620;52.340;5.984;2023-02-15T05:58:58;49.25;;;26.58;;
47860;SDS011;33620;52.340;5.984;2023-02-15T06:01:24;45.50;;;26.02;;
47860;SDS011;33620;52.340;5.984;2023-02-15T06:03:49;43.88;;;26.42;;
47860;SDS011;33620;52.340;5.984;2023-02-15T06:06:15;48.92;;;27.98;;
47860;SDS011;33620;52.340;5.984;2023-02-15T06:08:40;50.15;;;26.92;;
47860;SDS011;33620;52.340;5.984;2023-02-15T06:11:06;49.47;;;26.35;;
47860;SDS011;33620;52.340;5.984;2023-02-15T06:13:32;46.78;;;25.65;;
47860;SDS011;33620;52.340;5.984;2023-02-15T06:15:58;43.67;;;26.10;;
47860;SDS011;33620;52.340;5.984;2023-02-15T06:18:24;44.50;;;25.05;;
47860;SDS011;33620;52.340;5.984;2023-02-15T06:20:49;47.38;;;25.45;;
47860;SDS011;33620;52.340;5.984;2023-02-15T06:23:15;47.58;;;27.30;;
47860;SDS011;33620;52.340;5.984;2023-02-15T06:25:41;45.90;;;26.30;;
47860;SDS011;33620;52.340;5.984;2023-02-15T06:28:06;48.47;;;27.25;;
47860;SDS011;33620;52.340;5.984;2023-02-15T06:30:32;50.80;;;28.00;;
47860;SDS011;33620;52.340;5.984;2023-02-15T06:32:57;53.92;;;29.75;;
47860;SDS011;33620;52.340;5.984;2023-02-15T06:35:23;48.22;;;26.17;;
47860;SDS011;33620;52.340;5.984;2023-02-15T06:37:48;53.00;;;28.08;;
47860;SDS011;33620;52.340;5.984;2023-02-15T06:40:14;49.67;;;27.08;;
47860;SDS011;33620;52.340;5.984;2023-02-15T06:42:40;47.50;;;27.25;;
47860;SDS011;33620;52.340;5.984;2023-02-15T06:45:06;52.08;;;28.42;;
47860;SDS011;33620;52.340;5.984;2023-02-15T06:47:32;56.53;;;30.48;;
47860;SDS011;33620;52.340;5.984;2023-02-15T06:49:58;52.70;;;28.83;;
47860;SDS011;33620;52.340;5.984;2023-02-15T06:52:23;63.38;;;29.60;;
47860;SDS011;33620;52.340;5.984;2023-02-15T06:54:49;56.70;;;29.25;;
47860;SDS011;33620;52.340;5.984;2023-02-15T06:57:14;98.13;;;33.00;;
47860;SDS011;33620;52.340;5.984;2023-02-15T06:59:40;70.22;;;32.67;;
47860;SDS011;33620;52.340;5.984;2023-02-15T07:02:05;90.82;;;33.05;;
47860;SDS011;33620;52.340;5.984;2023-02-15T07:04:31;86.63;;;31.05;;
47860;SDS011;33620;52.340;5.984;2023-02-15T07:06:56;105.28;;;33.58;;
47860;SDS011;33620;52.340;5.984;2023-02-15T07:09:22;113.82;;;33.20;;
47860;SDS011;33620;52.340;5.984;2023-02-15T07:11:47;87.78;;;31.60;;
47860;SDS011;33620;52.340;5.984;2023-02-15T07:14:31;127.78;;;35.20;;
47860;SDS011;33620;52.340;5.984;2023-02-15T07:16:57;123.68;;;32.95;;
47860;SDS011;33620;52.340;5.984;2023-02-15T07:19:22;128.90;;;33.88;;
47860;SDS011;33620;52.340;5.984;2023-02-15T07:21:47;58.13;;;28.63;;
47860;SDS011;33620;52.340;5.984;2023-02-15T07:24:13;63.88;;;30.95;;
47860;SDS011;33620;52.340;5.984;2023-02-15T07:26:39;71.68;;;29.60;;
47860;SDS011;33620;52.340;5.984;2023-02-15T07:29:04;68.30;;;29.10;;
47860;SDS011;33620;52.340;5.984;2023-02-15T07:31:29;107.57;;;33.53;;
47860;SDS011;33620;52.340;5.984;2023-02-15T07:33:55;107.97;;;34.65;;
47860;SDS011;33620;52.340;5.984;2023-02-15T07:36:20;117.38;;;35.00;;
47860;SDS011;33620;52.340;5.984;2023-02-15T07:38:46;119.28;;;34.30;;
47860;SDS011;33620;52.340;5.984;2023-02-15T07:41:12;76.18;;;32.25;;
47860;SDS011;33620;52.340;5.984;2023-02-15T07:43:40;86.75;;;32.58;;
47860;SDS011;33620;52.340;5.984;2023-02-15T07:46:08;79.35;;;33.22;;
47860;SDS011;33620;52.340;5.984;2023-02-15T07:48:36;62.75;;;31.27;;
47860;SDS011;33620;52.340;5.984;2023-02-15T07:51:03;58.72;;;30.77;;
47860;SDS011;33620;52.340;5.984;2023-02-15T07:53:31;55.63;;;29.83;;
47860;SDS011;33620;52.340;5.984;2023-02-15T07:56:01;59.80;;;30.88;;
47860;SDS011;33620;52.340;5.984;2023-02-15T07:58:28;61.83;;;31.50;;
47860;SDS011;33620;52.340;5.984;2023-02-15T08:01:12;69.28;;;34.25;;
47860;SDS011;33620;52.340;5.984;2023-02-15T08:03:38;59.78;;;31.45;;
47860;SDS011;33620;52.340;5.984;2023-02-15T08:06:04;58.17;;;31.63;;
47860;SDS011;33620;52.340;5.984;2023-02-15T08:08:29;53.55;;;30.35;;
47860;SDS011;33620;52.340;5.984;2023-02-15T08:11:01;55.78;;;29.55;;
47860;SDS011;33620;52.340;5.984;2023-02-15T08:13:46;54.55;;;30.52;;
47860;SDS011;33620;52.340;5.984;2023-02-15T08:19:03;51.17;;;29.85;;
47860;SDS011;33620;52.340;5.984;2023-02-15T08:21:32;49.97;;;27.50;;
47860;SDS011;33620;52.340;5.984;2023-02-15T08:23:58;56.55;;;30.83;;
47860;SDS011;33620;52.340;5.984;2023-02-15T08:26:24;57.72;;;31.70;;
47860;SDS011;33620;52.340;5.984;2023-02-15T08:28:51;60.10;;;33.22;;
47860;SDS011;33620;52.340;5.984;2023-02-15T08:31:17;65.50;;;34.15;;
47860;SDS011;33620;52.340;5.984;2023-02-15T08:33:43;54.80;;;30.42;;
47860;SDS011;33620;52.340;5.984;2023-02-15T08:36:11;58.90;;;34.30;;
47860;SDS011;33620;52.340;5.984;2023-02-15T08:38:39;59.35;;;33.22;;
47860;SDS011;33620;52.340;5.984;2023-02-15T08:41:18;56.88;;;32.15;;
47860;SDS011;33620;52.340;5.984;2023-02-15T08:43:46;53.80;;;30.00;;
47860;SDS011;33620;52.340;5.984;2023-02-15T08:46:14;53.45;;;29.00;;
47860;SDS011;33620;52.340;5.984;2023-02-15T08:48:40;57.20;;;32.65;;
47860;SDS011;33620;52.340;5.984;2023-02-15T08:51:13;65.30;;;34.42;;
47860;SDS011;33620;52.340;5.984;2023-02-15T08:53:45;60.28;;;31.80;;
47860;SDS011;33620;52.340;5.984;2023-02-15T08:56:14;59.88;;;31.63;;
47860;SDS011;33620;52.340;5.984;2023-02-15T08:58:40;68.70;;;35.92;;
47860;SDS011;33620;52.340;5.984;2023-02-15T09:01:09;69.50;;;35.55;;
47860;SDS011;33620;52.340;5.984;2023-02-15T09:03:35;61.58;;;33.33;;
47860;SDS011;33620;52.340;5.984;2023-02-15T09:06:01;75.38;;;39.30;;
47860;SDS011;33620;52.340;5.984;2023-02-15T09:08:27;60.85;;;31.80;;
47860;SDS011;33620;52.340;5.984;2023-02-15T09:10:53;66.78;;;36.80;;
47860;SDS011;33620;52.340;5.984;2023-02-15T09:13:19;73.70;;;37.92;;
47860;SDS011;33620;52.340;5.984;2023-02-15T09:15:45;70.22;;;38.45;;
47860;SDS011;33620;52.340;5.984;2023-02-15T09:18:11;71.43;;;40.38;;
47860;SDS011;33620;52.340;5.984;2023-02-15T09:20:41;83.78;;;41.83;;
47860;SDS011;33620;52.340;5.984;2023-02-15T09:23:07;80.45;;;43.08;;
47860;SDS011;33620;52.340;5.984;2023-02-15T09:25:33;75.22;;;40.28;;
47860;SDS011;33620;52.340;5.984;2023-02-15T09:27:59;80.68;;;42.17;;
47860;SDS011;33620;52.340;5.984;2023-02-15T09:30:24;74.18;;;41.03;;
47860;SDS011;33620;52.340;5.984;2023-02-15T09:32:50;86.05;;;46.50;;
47860;SDS011;33620;52.340;5.984;2023-02-15T09:35:15;86.15;;;46.38;;
47860;SDS011;33620;52.340;5.984;2023-02-15T09:37:41;85.38;;;45.90;;
47860;SDS011;33620;52.340;5.984;2023-02-15T09:40:06;94.18;;;49.50;;
47860;SDS011;33620;52.340;5.984;2023-02-15T09:51:10;89.45;;;49.45;;
47860;SDS011;33620;52.340;5.984;2023-02-15T09:54:06;94.32;;;51.05;;
47860;SDS011;33620;52.340;5.984;2023-02-15T09:56:51;74.55;;;41.80;;
47860;SDS011;33620;52.340;5.984;2023-02-15T10:25:56;80.85;;;45.88;;
47860;SDS011;33620;52.340;5.984;2023-02-15T10:28:39;81.30;;;45.45;;
47860;SDS011;33620;52.340;5.984;2023-02-15T10:31:23;84.57;;;48.00;;
47860;SDS011;33620;52.340;5.984;2023-02-15T10:33:54;87.70;;;47.30;;
47860;SDS011;33620;52.340;5.984;2023-02-15T10:39:35;77.93;;;44.13;;
47860;SDS011;33620;52.340;5.984;2023-02-15T10:42:14;81.38;;;44.30;;
47860;SDS011;33620;52.340;5.984;2023-02-15T10:44:57;75.35;;;42.78;;
47860;SDS011;33620;52.340;5.984;2023-02-15T10:55:41;77.38;;;45.42;;
47860;SDS011;33620;52.340;5.984;2023-02-15T11:06:19;77.75;;;41.95;;
47860;SDS011;33620;52.340;5.984;2023-02-15T11:08:48;69.30;;;41.25;;
47860;SDS011;33620;52.340;5.984;2023-02-15T11:11:21;71.70;;;40.67;;
47860;SDS011;33620;52.340;5.984;2023-02-15T11:13:51;74.45;;;42.50;;
47860;SDS011;33620;52.340;5.984;2023-02-15T11:16:25;69.00;;;41.20;;
47860;SDS011;33620;52.340;5.984;2023-02-15T11:18:58;70.95;;;39.83;;
47860;SDS011;33620;52.340;5.984;2023-02-15T11:21:27;69.43;;;40.10;;
47860;SDS011;33620;52.340;5.984;2023-02-15T11:24:09;71.15;;;40.08;;
47860;SDS011;33620;52.340;5.984;2023-02-15T11:26:43;63.58;;;36.13;;
47860;SDS011;33620;52.340;5.984;2023-02-15T11:31:47;63.00;;;36.17;;
47860;SDS011;33620;52.340;5.984;2023-02-15T11:34:20;65.20;;;37.80;;
47860;SDS011;33620;52.340;5.984;2023-02-15T11:36:52;64.23;;;35.60;;
47860;SDS011;33620;52.340;5.984;2023-02-15T11:39:20;62.40;;;38.30;;
47860;SDS011;33620;52.340;5.984;2023-02-15T11:41:47;65.65;;;38.05;;
47860;SDS011;33620;52.340;5.984;2023-02-15T11:44:23;64.53;;;36.25;;
47860;SDS011;33620;52.340;5.984;2023-02-15T11:46:52;63.27;;;34.87;;
47860;SDS011;33620;52.340;5.984;2023-02-15T11:49:29;63.53;;;35.15;;
47860;SDS011;33620;52.340;5.984;2023-02-15T11:51:56;59.88;;;34.20;;
47860;SDS011;33620;52.340;5.984;2023-02-15T11:54:29;62.20;;;35.95;;
47860;SDS011;33620;52.340;5.984;2023-02-15T11:56:58;62.35;;;35.05;;
47860;SDS011;33620;52.340;5.984;2023-02-15T11:59:29;58.47;;;34.92;;
47860;SDS011;33620;52.340;5.984;2023-02-15T12:01:58;65.60;;;38.08;;
47860;SDS011;33620;52.340;5.984;2023-02-15T12:04:33;55.28;;;32.75;;
47860;SDS011;33620;52.340;5.984;2023-02-15T12:07:03;59.88;;;33.80;;
47860;SDS011;33620;52.340;5.984;2023-02-15T12:13:08;54.10;;;32.13;;
47860;SDS011;33620;52.340;5.984;2023-02-15T12:15:38;55.75;;;31.90;;
47860;SDS011;33620;52.340;5.984;2023-02-15T12:18:16;54.28;;;31.85;;
47860;SDS011;33620;52.340;5.984;2023-02-15T12:20:46;52.65;;;30.33;;
47860;SDS011;33620;52.340;5.984;2023-02-15T12:23:12;58.08;;;31.45;;
47860;SDS011;33620;52.340;5.984;2023-02-15T12:25:50;58.10;;;31.42;;
47860;SDS011;33620;52.340;5.984;2023-02-15T12:31:02;55.28;;;30.00;;
47860;SDS011;33620;52.340;5.984;2023-02-15T12:33:35;46.50;;;23.63;;
47860;SDS011;33620;52.340;5.984;2023-02-15T12:38:35;46.28;;;23.50;;
47860;SDS011;33620;52.340;5.984;2023-02-15T12:41:04;46.78;;;24.33;;
47860;SDS011;33620;52.340;5.984;2023-02-15T12:43:47;42.00;;;21.08;;
47860;SDS011;33620;52.340;5.984;2023-02-15T12:46:29;41.63;;;20.45;;
47860;SDS011;33620;52.340;5.984;2023-02-15T12:49:11;47.97;;;23.23;;
47860;SDS011;33620;52.340;5.984;2023-02-15T12:52:00;43.63;;;22.20;;
47860;SDS011;33620;52.340;5.984;2023-02-15T12:54:49;42.45;;;21.08;;
47860;SDS011;33620;52.340;5.984;2023-02-15T12:57:31;45.05;;;22.23;;
47860;SDS011;33620;52.340;5.984;2023-02-15T12:59:59;46.53;;;23.75;;
47860;SDS011;33620;52.340;5.984;2023-02-15T13:02:42;46.42;;;22.10;;
47860;SDS011;33620;52.340;5.984;2023-02-15T13:05:17;41.53;;;22.45;;
47860;SDS011;33620;52.340;5.984;2023-02-15T13:07:45;44.08;;;22.52;;
47860;SDS011;33620;52.340;5.984;2023-02-15T13:12:56;46.50;;;22.08;;
47860;SDS011;33620;52.340;5.984;2023-02-15T13:17:55;49.47;;;24.15;;
47860;SDS011;33620;52.340;5.984;2023-02-15T13:20:22;45.65;;;23.23;;
47860;SDS011;33620;52.340;5.984;2023-02-15T13:22:49;46.65;;;23.45;;
47860;SDS011;33620;52.340;5.984;2023-02-15T13:25:17;44.67;;;22.13;;
47860;SDS011;33620;52.340;5.984;2023-02-15T13:27:46;42.05;;;23.27;;
47860;SDS011;33620;52.340;5.984;2023-02-15T13:30:20;48.38;;;24.60;;
47860;SDS011;33620;52.340;5.984;2023-02-15T13:32:51;45.83;;;23.05;;
47860;SDS011;33620;52.340;5.984;2023-02-15T13:35:20;43.78;;;23.27;;
47860;SDS011;33620;52.340;5.984;2023-02-15T13:40:24;47.22;;;23.20;;
47860;SDS011;33620;52.340;5.984;2023-02-15T13:43:40;44.38;;;22.75;;
47860;SDS011;33620;52.340;5.984;2023-02-15T13:46:06;45.53;;;23.08;;
47860;SDS011;33620;52.340;5.984;2023-02-15T13:54:36;49.20;;;24.77;;
47860;SDS011;33620;52.340;5.984;2023-02-15T14:00:29;44.63;;;23.40;;
47860;SDS011;33620;52.340;5.984;2023-02-15T14:08:34;48.47;;;24.02;;
47860;SDS011;33620;52.340;5.984;2023-02-15T14:16:24;46.58;;;24.00;;
47860;SDS011;33620;52.340;5.984;2023-02-15T14:24:59;52.30;;;26.10;;
47860;SDS011;33620;52.340;5.984;2023-02-15T14:30:44;47.15;;;24.38;;
47860;SDS011;33620;52.340;5.984;2023-02-15T14:35:55;53.38;;;25.67;;
47860;SDS011;33620;52.340;5.984;2023-02-15T14:41:57;44.70;;;23.50;;
47860;SDS011;33620;52.340;5.984;2023-02-15T14:44:31;48.10;;;23.98;;
47860;SDS011;33620;52.340;5.984;2023-02-15T14:47:07;49.47;;;24.83;;
47860;SDS011;33620;52.340;5.984;2023-02-15T14:49:39;43.83;;;22.98;;
47860;SDS011;33620;52.340;5.984;2023-02-15T14:52:06;53.30;;;24.70;;
47860;SDS011;33620;52.340;5.984;2023-02-15T14:59:27;48.97;;;24.17;;
47860;SDS011;33620;52.340;5.984;2023-02-15T15:04:44;44.03;;;23.33;;
47860;SDS011;33620;52.340;5.984;2023-02-15T15:07:24;43.80;;;24.17;;
47860;SDS011;33620;52.340;5.984;2023-02-15T15:09:59;47.65;;;24.15;;
47860;SDS011;33620;52.340;5.984;2023-02-15T15:14:58;43.90;;;24.27;;
47860;SDS011;33620;52.340;5.984;2023-02-15T15:20:11;54.63;;;28.20;;
47860;SDS011;33620;52.340;5.984;2023-02-15T15:25:56;54.25;;;31.17;;
47860;SDS011;33620;52.340;5.984;2023-02-15T15:36:46;50.03;;;26.85;;
47860;SDS011;33620;52.340;5.984;2023-02-15T15:50:38;53.40;;;29.45;;
47860;SDS011;33620;52.340;5.984;2023-02-15T15:53:05;52.72;;;29.05;;
47860;SDS011;33620;52.340;5.984;2023-02-15T15:55:43;52.78;;;28.92;;
47860;SDS011;33620;52.340;5.984;2023-02-15T15:58:12;51.08;;;27.10;;
47860;SDS011;33620;52.340;5.984;2023-02-15T16:00:46;51.50;;;28.35;;
47860;SDS011;33620;52.340;5.984;2023-02-15T16:03:32;49.33;;;28.35;;
47860;SDS011;33620;52.340;5.984;2023-02-15T16:05:57;53.08;;;29.27;;
47860;SDS011;33620;52.340;5.984;2023-02-15T16:08:37;52.50;;;30.27;;
47860;SDS011;33620;52.340;5.984;2023-02-15T16:13:54;65.32;;;35.50;;
47860;SDS011;33620;52.340;5.984;2023-02-15T16:16:26;55.97;;;30.40;;
47860;SDS011;33620;52.340;5.984;2023-02-15T16:18:54;48.00;;;27.93;;
47860;SDS011;33620;52.340;5.984;2023-02-15T16:21:27;52.20;;;29.90;;
47860;SDS011;33620;52.340;5.984;2023-02-15T16:29:34;47.67;;;28.95;;
47860;SDS011;33620;52.340;5.984;2023-02-15T16:34:30;53.60;;;31.50;;
47860;SDS011;33620;52.340;5.984;2023-02-15T16:37:16;53.95;;;32.50;;
47860;SDS011;33620;52.340;5.984;2023-02-15T16:39:43;55.75;;;33.05;;
47860;SDS011;33620;52.340;5.984;2023-02-15T16:42:10;56.38;;;32.17;;
47860;SDS011;33620;52.340;5.984;2023-02-15T16:44:39;56.20;;;33.67;;
47860;SDS011;33620;52.340;5.984;2023-02-15T16:47:05;60.50;;;33.80;;
47860;SDS011;33620;52.340;5.984;2023-02-15T16:49:40;61.20;;;35.30;;
47860;SDS011;33620;52.340;5.984;2023-02-15T16:52:10;58.80;;;34.05;;
47860;SDS011;33620;52.340;5.984;2023-02-15T16:54:43;57.60;;;33.33;;
47860;SDS011;33620;52.340;5.984;2023-02-15T16:57:18;60.50;;;32.15;;
47860;SDS011;33620;52.340;5.984;2023-02-15T16:59:46;57.63;;;33.38;;
47860;SDS011;33620;52.340;5.984;2023-02-15T17:02:17;57.03;;;32.95;;
47860;SDS011;33620;52.340;5.984;2023-02-15T17:04:52;58.80;;;35.15;;
47860;SDS011;33620;52.340;5.984;2023-02-15T17:07:30;67.90;;;36.78;;
47860;SDS011;33620;52.340;5.984;2023-02-15T17:09:58;61.70;;;36.67;;
47860;SDS011;33620;52.340;5.984;2023-02-15T17:18:03;64.75;;;37.10;;
47860;SDS011;33620;52.340;5.984;2023-02-15T17:20:32;67.40;;;37.67;;
47860;SDS011;33620;52.340;5.984;2023-02-15T17:22:58;61.25;;;33.85;;
47860;SDS011;33620;52.340;5.984;2023-02-15T17:25:39;62.88;;;35.72;;
47860;SDS011;33620;52.340;5.984;2023-02-15T17:28:15;63.80;;;36.58;;
47860;SDS011;33620;52.340;5.984;2023-02-15T17:30:43;64.38;;;37.22;;
47860;SDS011;33620;52.340;5.984;2023-02-15T17:33:35;62.45;;;36.85;;
47860;SDS011;33620;52.340;5.984;2023-02-15T17:38:36;72.32;;;39.22;;
47860;SDS011;33620;52.340;5.984;2023-02-15T17:41:06;63.53;;;37.55;;
47860;SDS011;33620;52.340;5.984;2023-02-15T17:43:32;69.45;;;38.97;;
47860;SDS011;33620;52.340;5.984;2023-02-15T17:45:57;67.45;;;41.25;;
47860;SDS011;33620;52.340;5.984;2023-02-15T17:48:26;69.10;;;42.40;;
47860;SDS011;33620;52.340;5.984;2023-02-15T17:50:56;68.65;;;40.40;;
47860;SDS011;33620;52.340;5.984;2023-02-15T17:53:23;70.97;;;41.13;;